createdAt,value
2019-05-13T00:00:36.385Z,5.30
2019-05-13T00:03:04.053Z,5.17
2019-05-13T00:05:33.795Z,7.03
2019-05-13T00:08:03.235Z,7.57
2019-05-13T00:10:30.787Z,7.03
2019-05-13T00:12:58.470Z,8.10
2019-05-13T00:15:26.144Z,4.83
2019-05-13T00:17:54.374Z,7.10
2019-05-13T00:20:24.076Z,7.00
2019-05-13T00:22:53.645Z,6.57
2019-05-13T00:25:21.160Z,8.53
2019-05-13T00:27:49.345Z,6.27
2019-05-13T00:30:17.204Z,6.37
2019-05-13T00:32:45.020Z,6.40
2019-05-13T00:35:14.179Z,8.57
2019-05-13T00:37:44.318Z,5.23
2019-05-13T00:40:14.122Z,6.90
2019-05-13T00:42:43.829Z,5.90
2019-05-13T00:45:11.099Z,7.10
2019-05-13T00:47:38.771Z,7.33
2019-05-13T00:50:06.423Z,6.57
2019-05-13T00:52:34.061Z,3.67
2019-05-13T00:55:04.089Z,6.53
2019-05-13T00:57:31.210Z,7.97
2019-05-13T00:59:58.942Z,7.53
2019-05-13T01:02:26.863Z,10.50
2019-05-13T01:04:54.546Z,7.90
2019-05-13T01:07:27.875Z,4.80
2019-05-13T01:09:53.501Z,5.50
2019-05-13T01:12:21.229Z,8.83
2019-05-13T01:14:50.655Z,4.47
2019-05-13T01:17:18.334Z,6.47
2019-05-13T01:19:46.051Z,7.73
2019-05-13T01:22:13.734Z,4.40
2019-05-13T01:24:43.655Z,6.87
2019-05-13T01:27:10.923Z,7.13
2019-05-13T01:29:38.666Z,6.60
2019-05-13T01:32:06.363Z,5.43
2019-05-13T01:34:34.098Z,5.13
2019-05-13T01:37:04.001Z,7.57
2019-05-13T01:39:31.387Z,7.50
2019-05-13T01:41:59.063Z,4.83
2019-05-13T01:44:26.811Z,6.20
2019-05-13T01:46:54.492Z,6.20
2019-05-13T01:49:24.119Z,7.00
2019-05-13T01:51:54.174Z,6.97
2019-05-13T01:54:21.927Z,7.87
2019-05-13T01:56:50.683Z,4.83
2019-05-13T01:59:18.414Z,5.20
2019-05-13T02:01:46.075Z,5.33
2019-05-13T02:04:14.282Z,4.57
2019-05-13T02:06:44.131Z,6.03
2019-05-13T02:09:11.483Z,4.63
2019-05-13T02:11:39.174Z,3.23
2019-05-13T02:14:06.842Z,6.37
2019-05-13T02:16:34.535Z,6.63
2019-05-13T02:19:03.872Z,4.63
2019-05-13T02:21:33.646Z,4.73
2019-05-13T02:24:01.199Z,4.20
2019-05-13T02:26:28.846Z,3.90
2019-05-13T02:28:56.505Z,6.90
2019-05-13T02:31:39.041Z,5.27
2019-05-13T02:33:53.692Z,7.83
2019-05-13T02:36:22.894Z,4.70
2019-05-13T02:38:53.171Z,8.27
2019-05-13T02:41:22.815Z,5.80
2019-05-13T02:43:52.659Z,4.53
2019-05-13T02:46:22.407Z,3.67
2019-05-13T02:48:52.561Z,3.97
2019-05-13T02:51:18.525Z,2.73
2019-05-13T02:53:46.515Z,4.73
2019-05-13T02:56:14.244Z,5.60
2019-05-13T02:58:43.069Z,3.90
2019-05-13T03:01:12.565Z,4.73
2019-05-13T03:03:40.365Z,4.80
2019-05-13T03:06:08.037Z,6.17
2019-05-13T03:08:46.205Z,3.47
2019-05-13T03:11:05.346Z,6.77
2019-05-13T03:13:34.102Z,6.77
2019-05-13T03:16:24.049Z,6.80
2019-05-13T03:18:53.707Z,4.90
2019-05-13T03:21:23.420Z,6.57
2019-05-13T03:23:53.570Z,3.43
2019-05-13T03:26:23.540Z,3.77
2019-05-13T03:28:52.477Z,6.93
2019-05-13T03:31:26.532Z,4.20
2019-05-13T03:33:55.537Z,5.93
2019-05-13T03:36:25.298Z,6.57
2019-05-13T03:39:05.603Z,5.17
2019-05-13T03:41:22.672Z,5.87
2019-05-13T03:43:53.330Z,6.43
2019-05-13T03:46:23.073Z,4.43
2019-05-13T03:48:53.624Z,5.93
2019-05-13T03:51:22.321Z,3.37
2019-05-13T03:53:53.208Z,6.87
2019-05-13T03:56:23.547Z,5.73
2019-05-13T03:58:53.678Z,5.60
2019-05-13T04:01:22.343Z,5.50
2019-05-13T04:03:52.789Z,10.40
2019-05-13T04:06:22.337Z,4.30
2019-05-13T04:08:49.353Z,8.10
2019-05-13T04:11:16.990Z,5.77
2019-05-13T04:13:44.627Z,6.20
2019-05-13T04:16:12.897Z,9.03
2019-05-13T04:18:42.661Z,8.33
2019-05-13T04:21:13.102Z,6.00
2019-05-13T04:23:42.602Z,8.37
2019-05-13T04:26:09.903Z,8.17
2019-05-13T04:28:37.590Z,8.63
2019-05-13T04:31:05.250Z,6.67
2019-05-13T04:33:33.571Z,7.70
2019-05-13T04:36:02.544Z,6.20
2019-05-13T04:38:33.027Z,5.80
2019-05-13T04:41:03.165Z,7.20
2019-05-13T04:43:33.805Z,6.50
2019-05-13T04:46:02.303Z,10.77
2019-05-13T04:48:28.792Z,7.27
2019-05-13T04:50:56.576Z,6.57
2019-05-13T04:53:24.234Z,6.70
2019-05-13T04:55:52.877Z,5.13
2019-05-13T04:58:23.695Z,6.60
2019-05-13T05:01:17.645Z,6.23
2019-05-13T05:03:53.503Z,7.60
2019-05-13T05:06:54.348Z,5.67
2019-05-13T05:13:02.318Z,9.57
2019-05-13T05:15:52.607Z,5.73
2019-05-13T05:18:56.069Z,10.10
2019-05-13T05:21:28.322Z,9.20
2019-05-13T05:24:46.999Z,7.73
2019-05-13T05:27:58.476Z,6.17
2019-05-13T05:31:16.327Z,11.00
2019-05-13T05:34:32.188Z,9.70
2019-05-13T05:37:22.510Z,7.50
2019-05-13T05:39:53.992Z,9.37
2019-05-13T05:42:24.095Z,9.83
2019-05-13T05:44:53.952Z,10.50
2019-05-13T05:47:23.012Z,7.80
2019-05-13T05:49:53.085Z,6.27
2019-05-13T05:52:22.747Z,7.73
2019-05-13T05:54:52.205Z,7.50
2019-05-13T05:57:22.530Z,11.67
2019-05-13T05:59:51.714Z,9.13
2019-05-13T06:02:23.115Z,8.00
2019-05-13T06:04:52.137Z,7.77
2019-05-13T06:07:22.023Z,8.60
2019-05-13T06:09:51.603Z,14.47
2019-05-13T06:12:21.395Z,10.30
2019-05-13T06:14:52.211Z,8.77
2019-05-13T06:17:18.916Z,10.40
2019-05-13T06:19:46.787Z,8.40
2019-05-13T06:22:14.450Z,8.80
2019-05-13T06:24:44.475Z,7.47
2019-05-13T06:27:12.138Z,12.90
2019-05-13T06:29:42.044Z,10.03
2019-05-13T06:32:20.480Z,8.57
2019-05-13T06:34:41.378Z,12.63
2019-05-13T06:37:08.366Z,9.37
2019-05-13T06:39:36.025Z,7.83
2019-05-13T06:42:03.731Z,8.50
2019-05-13T06:44:31.864Z,7.93
2019-05-13T06:47:02.131Z,10.10
2019-05-13T06:49:31.506Z,8.87
2019-05-13T06:52:01.446Z,9.33
2019-05-13T06:54:28.364Z,7.63
2019-05-13T06:56:55.998Z,5.63
2019-05-13T06:59:23.660Z,9.03
2019-05-13T07:01:51.524Z,13.43
2019-05-13T07:04:21.718Z,8.80
2019-05-13T07:06:51.480Z,7.67
2019-05-13T07:09:18.238Z,7.20
2019-05-13T07:11:45.966Z,7.80
2019-05-13T07:14:13.657Z,6.83
2019-05-13T07:16:42.101Z,9.80
2019-05-13T07:19:11.744Z,10.47
2019-05-13T07:21:41.693Z,9.77
2019-05-13T07:24:09.129Z,8.53
2019-05-13T07:26:36.826Z,8.53
2019-05-13T07:29:05.157Z,14.50
2019-05-13T07:31:33.160Z,6.47
2019-05-13T07:34:02.343Z,8.17
2019-05-13T07:36:31.751Z,8.93
2019-05-13T07:39:01.474Z,7.90
2019-05-13T07:41:36.456Z,7.13
2019-05-13T07:43:59.004Z,11.40
2019-05-13T07:46:26.637Z,9.40
2019-05-13T07:48:54.442Z,7.23
2019-05-13T07:51:22.334Z,7.27
2019-05-13T07:53:51.813Z,7.93
2019-05-13T07:56:21.858Z,9.30
2019-05-13T07:58:49.099Z,5.60
2019-05-13T08:01:16.780Z,7.73
2019-05-13T08:03:44.461Z,7.13
2019-05-13T08:06:12.142Z,8.00
2019-05-13T08:08:41.710Z,10.50
2019-05-13T08:11:09.463Z,10.13
2019-05-13T08:13:37.096Z,9.13
2019-05-13T08:16:04.791Z,9.20
2019-05-13T08:18:33.564Z,10.97
2019-05-13T08:21:02.268Z,7.67
2019-05-13T08:23:32.408Z,9.57
2019-05-13T08:26:02.085Z,7.30
2019-05-13T08:28:32.037Z,9.53
2019-05-13T08:30:58.814Z,8.90
2019-05-13T08:33:26.554Z,9.47
2019-05-13T08:35:58.647Z,9.47
2019-05-13T08:38:23.746Z,9.23
2019-05-13T08:40:51.588Z,9.03
2019-05-13T08:43:19.245Z,6.37
2019-05-13T08:45:46.901Z,8.23
2019-05-13T08:48:14.611Z,9.97
2019-05-13T08:50:42.336Z,6.37
2019-05-13T08:53:12.187Z,9.40
2019-05-13T08:55:41.792Z,5.80
2019-05-13T08:58:08.946Z,8.17
2019-05-13T09:00:48.495Z,8.10
2019-05-13T09:03:16.300Z,6.97
2019-05-13T09:05:44.314Z,5.77
2019-05-13T09:08:12.412Z,6.27
2019-05-13T09:10:41.340Z,8.33
2019-05-13T09:13:11.945Z,7.33
2019-05-13T09:15:38.926Z,6.57
2019-05-13T09:18:06.738Z,7.90
2019-05-13T09:20:34.726Z,7.97
2019-05-13T09:23:02.447Z,8.37
2019-05-13T09:25:32.082Z,5.23
2019-05-13T09:28:02.567Z,6.97
2019-05-13T09:30:31.492Z,7.30
2019-05-13T09:32:58.777Z,7.33
2019-05-13T09:35:26.483Z,6.93
2019-05-13T09:37:54.157Z,5.77
2019-05-13T09:40:22.429Z,5.77
2019-05-13T09:42:54.465Z,6.63
2019-05-13T09:45:21.577Z,8.47
2019-05-13T09:47:49.337Z,5.57
2019-05-13T09:50:28.282Z,7.00
2019-05-13T09:52:46.597Z,4.13
2019-05-13T09:55:26.389Z,5.90
2019-05-13T09:57:43.824Z,7.90
2019-05-13T10:00:12.398Z,6.83
2019-05-13T10:02:42.336Z,7.20
2019-05-13T10:05:11.516Z,6.03
2019-05-13T10:07:42.509Z,4.87
2019-05-13T10:10:12.005Z,6.13
2019-05-13T10:12:42.134Z,6.30
2019-05-13T10:15:12.348Z,6.77
2019-05-13T10:17:42.405Z,5.20
2019-05-13T10:20:09.019Z,2.83
2019-05-13T10:22:36.906Z,5.07
2019-05-13T10:25:05.578Z,3.03
2019-05-13T10:27:33.645Z,4.47
2019-05-13T10:30:01.541Z,3.63
2019-05-13T10:32:32.438Z,2.83
2019-05-13T10:35:03.218Z,4.17
2019-05-13T10:37:30.946Z,5.27
2019-05-13T10:39:58.593Z,3.50
2019-05-13T10:42:26.418Z,5.23
2019-05-13T10:44:54.259Z,4.67
2019-05-13T10:47:22.703Z,4.43
2019-05-13T10:49:52.364Z,4.10
2019-05-13T10:52:22.385Z,4.90
2019-05-13T10:54:52.019Z,3.13
2019-05-13T10:57:19.036Z,3.47
2019-05-13T10:59:46.739Z,4.80
2019-05-13T11:02:14.388Z,2.43
2019-05-13T11:04:42.087Z,3.23
2019-05-13T11:07:12.017Z,3.13
2019-05-13T11:09:41.773Z,6.90
2019-05-13T11:12:08.848Z,2.67
2019-05-13T11:14:36.560Z,4.13
2019-05-13T11:17:04.812Z,3.60
2019-05-13T11:19:36.118Z,2.70
2019-05-13T11:22:02.755Z,5.47
2019-05-13T11:24:32.517Z,5.30
2019-05-13T11:27:02.544Z,2.83
2019-05-13T11:29:32.358Z,3.57
2019-05-13T11:32:01.999Z,3.73
2019-05-13T11:34:29.265Z,2.20
2019-05-13T11:36:57.024Z,3.57
2019-05-13T11:39:24.674Z,2.57
2019-05-13T11:41:52.403Z,5.60
2019-05-13T11:44:22.587Z,2.43
2019-05-13T11:46:52.753Z,3.07
2019-05-13T11:49:19.474Z,5.30
2019-05-13T11:51:47.205Z,2.73
2019-05-13T11:54:14.886Z,2.77
2019-05-13T11:56:49.370Z,3.47
2019-05-13T11:59:14.318Z,3.07
2019-05-13T12:01:42.857Z,3.27
2019-05-13T12:04:10.643Z,2.93
2019-05-13T12:06:47.757Z,2.87
2019-05-13T12:09:07.955Z,3.27
2019-05-13T12:11:35.616Z,5.03
2019-05-13T12:14:03.641Z,2.47
2019-05-13T12:16:34.782Z,4.47
2019-05-13T12:19:03.442Z,3.77
2019-05-13T12:21:30.501Z,2.97
2019-05-13T12:23:58.205Z,5.00
2019-05-13T12:26:25.867Z,3.50
2019-05-13T12:28:54.013Z,4.03
2019-05-13T12:31:22.381Z,2.60
2019-05-13T12:33:52.400Z,3.03
2019-05-13T12:36:22.869Z,3.30
2019-05-13T12:38:52.952Z,6.00
2019-05-13T12:41:18.744Z,3.87
2019-05-13T12:43:46.521Z,2.57
2019-05-13T12:46:14.196Z,2.77
2019-05-13T12:48:41.914Z,3.23
2019-05-13T12:51:12.390Z,4.50
2019-05-13T12:53:43.249Z,2.47
2019-05-13T12:56:08.635Z,5.27
2019-05-13T12:58:36.297Z,2.50
2019-05-13T13:01:04.118Z,3.80
2019-05-13T13:03:32.382Z,3.43
2019-05-13T13:06:22.441Z,2.10
2019-05-13T13:08:42.822Z,2.53
2019-05-13T13:10:59.583Z,2.83
2019-05-13T13:13:56.107Z,3.27
2019-05-13T13:15:56.894Z,3.57
2019-05-13T13:18:24.743Z,3.13
2019-05-13T13:21:00.199Z,1.73
2019-05-13T13:23:23.649Z,3.47
2019-05-13T13:25:54.148Z,1.43
2019-05-13T13:28:23.793Z,3.07
2019-05-13T13:30:52.806Z,2.33
2019-05-13T13:33:19.900Z,2.07
2019-05-13T13:35:55.888Z,2.40
2019-05-13T13:38:17.236Z,3.63
2019-05-13T13:40:45.968Z,2.07
2019-05-13T13:43:14.072Z,2.77
2019-05-13T13:46:06.699Z,4.00
2019-05-13T13:48:13.397Z,3.83
2019-05-13T13:50:44.320Z,1.30
2019-05-13T13:53:14.140Z,2.23
2019-05-13T13:55:43.355Z,2.53
2019-05-13T13:58:09.470Z,2.50
2019-05-13T14:00:47.215Z,2.93
2019-05-13T14:03:06.851Z,2.37
2019-05-13T14:05:36.244Z,2.07
2019-05-13T14:08:04.143Z,2.13
2019-05-13T14:10:33.271Z,2.23
2019-05-13T14:13:13.256Z,2.10
2019-05-13T14:15:32.066Z,3.60
2019-05-13T14:18:01.146Z,3.13
2019-05-13T14:20:28.797Z,2.70
2019-05-13T14:22:58.014Z,2.43
2019-05-13T14:25:25.952Z,2.33
2019-05-13T14:27:53.627Z,1.90
2019-05-13T14:30:21.813Z,2.13
2019-05-13T14:32:52.150Z,3.43
2019-05-13T14:35:21.946Z,2.23
2019-05-13T14:37:51.873Z,2.67
2019-05-13T14:40:22.245Z,2.17
2019-05-13T14:42:49.205Z,2.43
2019-05-13T14:45:20.450Z,3.03
2019-05-13T14:47:49.337Z,3.10
2019-05-13T14:50:17.046Z,2.50
2019-05-13T14:52:45.836Z,2.13
2019-05-13T14:55:13.646Z,3.20
2019-05-13T14:57:41.883Z,2.20
2019-05-13T15:00:10.257Z,3.33
2019-05-13T15:02:38.317Z,3.23
2019-05-13T15:05:06.207Z,2.63
2019-05-13T15:07:33.946Z,1.63
2019-05-13T15:10:02.481Z,4.17
2019-05-13T15:12:32.275Z,2.80
2019-05-13T15:15:01.477Z,2.17
2019-05-13T15:17:32.461Z,2.93
2019-05-13T15:20:01.866Z,7.17
2019-05-13T15:22:31.842Z,2.43
2019-05-13T15:25:02.420Z,1.73
2019-05-13T15:27:31.480Z,3.07
2019-05-13T15:30:14.489Z,6.43
2019-05-13T15:32:28.309Z,4.23
2019-05-13T15:34:56.281Z,2.13
2019-05-13T15:37:23.989Z,2.57
2019-05-13T15:39:52.061Z,3.00
2019-05-13T15:42:21.419Z,3.77
2019-05-13T15:44:49.137Z,5.30
2019-05-13T15:47:24.127Z,2.97
2019-05-13T15:49:46.278Z,2.57
2019-05-13T15:52:13.989Z,4.27
2019-05-13T15:54:41.754Z,4.57
2019-05-13T15:57:11.740Z,2.87
2019-05-13T15:59:41.354Z,3.03
2019-05-13T16:02:08.407Z,2.40
2019-05-13T16:04:49.016Z,3.17
2019-05-13T16:07:05.600Z,3.03
2019-05-13T16:09:33.298Z,2.47
2019-05-13T16:12:01.693Z,4.23
2019-05-13T16:14:31.490Z,2.27
2019-05-13T16:16:59.185Z,3.30
2019-05-13T16:19:26.947Z,4.40
2019-05-13T16:21:54.611Z,5.60
2019-05-13T16:24:22.315Z,4.60
2019-05-13T16:26:52.137Z,3.13
2019-05-13T16:29:22.277Z,1.67
2019-05-13T16:31:51.440Z,4.27
2019-05-13T16:34:19.119Z,2.03
2019-05-13T16:36:46.873Z,2.27
2019-05-13T16:39:14.645Z,3.53
2019-05-13T16:41:42.740Z,2.70
2019-05-13T16:44:12.180Z,3.17
2019-05-13T16:46:42.187Z,3.60
2019-05-13T16:49:12.108Z,3.53
2019-05-13T16:51:42.342Z,3.07
2019-05-13T16:54:09.349Z,2.10
2019-05-13T16:56:37.157Z,2.00
2019-05-13T16:59:04.893Z,3.10
2019-05-13T17:01:32.684Z,3.93
2019-05-13T17:04:02.045Z,2.87
2019-05-13T17:06:32.017Z,3.93
2019-05-13T17:08:59.379Z,5.07
2019-05-13T17:11:28.947Z,3.57
2019-05-13T17:13:56.622Z,3.90
2019-05-13T17:16:24.301Z,2.63
2019-05-13T17:18:52.178Z,4.27
2019-05-13T17:21:21.196Z,3.83
2019-05-13T17:23:48.913Z,5.63
2019-05-13T17:26:16.705Z,4.63
2019-05-13T17:28:44.448Z,2.27
2019-05-13T17:31:12.207Z,3.13
2019-05-13T17:33:39.973Z,2.87
2019-05-13T17:36:07.604Z,2.63
2019-05-13T17:38:35.300Z,4.43
2019-05-13T17:41:03.074Z,2.70
2019-05-13T17:43:31.952Z,3.53
2019-05-13T17:46:00.136Z,2.27
2019-05-13T17:48:29.718Z,2.73
2019-05-13T17:50:57.294Z,3.83
2019-05-13T17:53:24.942Z,3.40
2019-05-13T17:55:53.761Z,3.23
2019-05-13T17:58:22.139Z,4.03
2019-05-13T18:00:51.912Z,4.37
2019-05-13T18:03:19.902Z,3.50
2019-05-13T18:05:48.832Z,2.27
2019-05-13T18:08:16.599Z,3.37
2019-05-13T18:10:44.387Z,3.27
2019-05-13T18:13:12.730Z,1.50
2019-05-13T18:15:40.576Z,3.43
2019-05-13T18:18:08.250Z,2.57
2019-05-13T18:20:35.969Z,2.53
2019-05-13T18:23:03.799Z,2.50
2019-05-13T18:25:32.772Z,3.77
2019-05-13T18:28:01.563Z,2.83
2019-05-13T18:30:31.614Z,2.57
2019-05-13T18:33:01.048Z,3.87
2019-05-13T18:35:28.549Z,2.33
2019-05-13T18:37:56.246Z,2.90
2019-05-13T18:40:23.926Z,1.40
2019-05-13T18:42:51.685Z,2.23
2019-05-13T18:45:21.889Z,1.00
2019-05-13T18:47:51.020Z,1.60
2019-05-13T18:50:18.620Z,3.97
2019-05-13T18:52:46.458Z,1.23
2019-05-13T18:55:14.220Z,1.53
2019-05-13T18:57:42.002Z,1.63
2019-05-13T19:00:11.168Z,1.70
2019-05-13T19:02:41.328Z,1.40
2019-05-13T19:05:11.674Z,1.83
2019-05-13T19:07:38.755Z,2.90
2019-05-13T19:10:06.998Z,3.30
2019-05-13T19:12:34.845Z,2.23
2019-05-13T19:15:02.659Z,2.93
2019-05-13T19:17:32.262Z,1.63
2019-05-13T19:20:00.019Z,1.30
2019-05-13T19:22:27.794Z,2.07
2019-05-13T19:24:55.499Z,1.23
2019-05-13T19:27:23.468Z,4.83
2019-05-13T19:29:53.463Z,2.13
2019-05-13T19:32:21.900Z,1.57
2019-05-13T19:34:51.648Z,1.97
2019-05-13T19:37:19.291Z,4.20
2019-05-13T19:39:47.109Z,1.60
2019-05-13T19:42:14.868Z,1.10
2019-05-13T19:44:43.042Z,2.03
2019-05-13T19:47:12.399Z,1.40
2019-05-13T19:49:46.280Z,3.03
2019-05-13T19:52:12.692Z,1.90
2019-05-13T19:54:42.045Z,2.03
2019-05-13T19:57:11.972Z,1.97
2019-05-13T19:59:39.656Z,1.30
2019-05-13T20:02:07.322Z,4.00
2019-05-13T20:04:35.044Z,1.83
2019-05-13T20:07:02.958Z,2.73
2019-05-13T20:09:32.173Z,2.27
2019-05-13T20:12:01.984Z,3.10
2019-05-13T20:14:31.106Z,2.20
2019-05-13T20:16:58.850Z,3.43
2019-05-13T20:19:26.620Z,1.73
2019-05-13T20:21:54.463Z,1.80
2019-05-13T20:24:22.267Z,2.63
2019-05-13T20:26:52.023Z,2.17
2019-05-13T20:29:19.389Z,7.03
2019-05-13T20:31:47.083Z,2.30
2019-05-13T20:34:14.911Z,3.00
2019-05-13T20:36:42.604Z,1.33
2019-05-13T20:39:11.555Z,2.47
2019-05-13T20:41:41.236Z,3.37
2019-05-13T20:44:08.894Z,2.37
2019-05-13T20:46:36.626Z,2.07
2019-05-13T20:49:04.458Z,2.93
2019-05-13T20:51:32.231Z,2.23
2019-05-13T20:54:02.225Z,4.53
2019-05-13T20:56:31.803Z,3.87
2019-05-13T20:58:59.557Z,2.20
2019-05-13T21:01:27.246Z,2.50
2019-05-13T21:03:54.921Z,5.27
2019-05-13T21:06:22.818Z,1.47
2019-05-13T21:08:52.169Z,2.07
2019-05-13T21:11:19.949Z,2.23
2019-05-13T21:13:47.614Z,2.37
2019-05-13T21:16:15.349Z,2.00
2019-05-13T21:18:43.136Z,2.50
2019-05-13T21:21:11.622Z,3.13
2019-05-13T21:23:41.519Z,2.80
2019-05-13T21:26:11.904Z,3.43
2019-05-13T21:28:38.447Z,3.17
2019-05-13T21:31:06.112Z,3.80
2019-05-13T21:33:33.765Z,2.83
2019-05-13T21:36:01.954Z,3.60
2019-05-13T21:38:32.231Z,2.33
2019-05-13T21:40:59.197Z,2.60
2019-05-13T21:43:26.935Z,1.87
2019-05-13T21:45:54.616Z,3.63
2019-05-13T21:48:22.436Z,3.43
2019-05-13T21:50:51.612Z,3.60
2019-05-13T21:53:24.177Z,3.87
2019-05-13T21:55:49.055Z,3.50
2019-05-13T21:58:16.718Z,3.73
2019-05-13T22:00:46.074Z,3.73
2019-05-13T22:03:13.978Z,3.17
2019-05-13T22:05:41.774Z,4.90
2019-05-13T22:08:09.462Z,2.97
2019-05-13T22:10:37.115Z,5.17
2019-05-13T22:13:04.744Z,3.73
2019-05-13T22:15:33.528Z,3.87
2019-05-13T22:18:02.309Z,5.83
2019-05-13T22:20:33.046Z,3.63
2019-05-13T22:23:01.467Z,4.80
2019-05-13T22:25:30.158Z,6.07
2019-05-13T22:27:57.903Z,2.93
2019-05-13T22:30:25.574Z,3.37
2019-05-13T22:32:53.233Z,4.47
2019-05-13T22:35:21.796Z,2.97
2019-05-13T22:37:51.218Z,5.03
2019-05-13T22:40:21.713Z,4.33
2019-05-13T22:42:48.627Z,4.77
2019-05-13T22:45:16.360Z,7.67
2019-05-13T22:47:44.025Z,3.77
2019-05-13T22:50:12.417Z,4.90
2019-05-13T22:52:41.825Z,3.70
2019-05-13T22:55:11.510Z,4.00
2019-05-13T22:57:41.745Z,4.73
2019-05-13T23:00:11.652Z,4.47
2019-05-13T23:02:42.133Z,4.23
2019-05-13T23:05:11.273Z,3.93
2019-05-13T23:07:39.163Z,4.43
2019-05-13T23:10:07.054Z,3.93
2019-05-13T23:12:34.738Z,4.33
2019-05-13T23:15:03.030Z,3.60
2019-05-13T23:17:32.028Z,3.93
2019-05-13T23:20:01.346Z,6.53
2019-05-13T23:22:29.219Z,5.97
2019-05-13T23:24:56.922Z,3.50
2019-05-13T23:27:24.608Z,3.17
2019-05-13T23:29:52.316Z,4.80
2019-05-13T23:32:21.274Z,3.90
2019-05-13T23:34:51.098Z,6.83
2019-05-13T23:37:18.514Z,4.93
2019-05-13T23:39:46.224Z,5.77
2019-05-13T23:42:13.907Z,5.97
2019-05-13T23:44:41.708Z,4.53
2019-05-13T23:47:11.469Z,4.07
2019-05-13T23:49:38.986Z,5.53
2019-05-13T23:52:06.654Z,2.80
2019-05-13T23:54:34.346Z,3.30
2019-05-13T23:57:02.074Z,3.43
2019-05-13T23:59:31.251Z,4.17
